Time;durP1;ratioP1;P1;durP2;ratioP2;P2;SDS_P1;SDS_P2;PMS_P1;PMS_P2;Temp;Humidity;BMP_temperature;BMP_pressure;BME280_temperature;BME280_humidity;BME280_pressure;Samples;Min_cycle;Max_cycle;Signal;HPM_P1;HPM_P2
2022/12/24 00:01:07;;;;;;;0.20;0.20;;;;;;;7.60;100.00;95726.28;4946980;28;20213;-74
2022/12/24 00:03:53;;;;;;;0.10;0.10;;;;;;;7.63;100.00;95714.34;4951297;28;20066;-72
2022/12/24 00:06:39;;;;;;;0.20;0.20;;;;;;;7.64;100.00;95722.09;4961058;28;20320;-77
2022/12/24 00:09:25;;;;;;;0.10;0.10;;;;;;;7.66;100.00;95706.66;4964261;28;20046;-76
2022/12/24 00:12:10;;;;;;;0.20;0.20;;;;;;;7.66;100.00;95711.19;4960882;28;20053;-73
2022/12/24 00:14:56;;;;;;;0.20;0.20;;;;;;;7.65;100.00;95715.72;4950692;28;20054;-75
2022/12/24 00:17:42;;;;;;;0.10;0.10;;;;;;;7.58;100.00;95708.97;4961425;28;20042;-71
2022/12/24 00:20:28;;;;;;;0.17;0.17;;;;;;;7.65;100.00;95729.03;4964445;28;20042;-73
2022/12/24 00:23:15;;;;;;;0.13;0.13;;;;;;;7.62;100.00;95724.16;4958071;28;20050;-73
2022/12/24 00:26:01;;;;;;;0.20;0.20;;;;;;;7.61;100.00;95724.44;4960457;28;20042;-74
2022/12/24 00:28:47;;;;;;;0.10;0.10;;;;;;;7.57;100.00;95726.78;4962881;28;20297;-73
2022/12/24 00:31:33;;;;;;;0.20;0.20;;;;;;;7.62;100.00;95742.81;4961216;28;20053;-73
2022/12/24 00:34:23;;;;;;;0.17;0.17;;;;;;;7.58;100.00;95743.56;4948164;28;20046;-72
2022/12/24 00:37:08;;;;;;;0.20;0.20;;;;;;;7.57;100.00;95740.09;4962360;28;20496;-75
2022/12/24 00:39:54;;;;;;;0.20;0.20;;;;;;;7.59;100.00;95745.19;4965745;28;20448;-73
2022/12/24 00:42:40;;;;;;;0.30;0.30;;;;;;;7.56;100.00;95749.16;4962878;28;20046;-75
2022/12/24 00:45:29;;;;;;;0.13;0.13;;;;;;;7.51;100.00;95757.84;4963673;28;20038;-75
2022/12/24 00:48:15;;;;;;;0.20;0.20;;;;;;;7.33;100.00;95758.16;4948437;28;20046;-74
2022/12/24 00:51:01;;;;;;;0.20;0.20;;;;;;;7.23;100.00;95752.66;4961909;28;20043;-76
2022/12/24 00:53:47;;;;;;;0.20;0.20;;;;;;;7.13;100.00;95744.53;4961969;28;20046;-74
2022/12/24 00:56:33;;;;;;;0.20;0.20;;;;;;;7.10;100.00;95751.16;4965791;28;20112;-72
2022/12/24 00:59:19;;;;;;;0.20;0.20;;;;;;;7.00;100.00;95745.66;4963326;28;20078;-73
2022/12/24 01:02:05;;;;;;;0.10;0.10;;;;;;;6.93;100.00;95745.84;4961402;28;20117;-74
2022/12/24 01:05:10;;;;;;;0.20;0.20;;;;;;;6.93;100.00;95764.47;4965143;28;20163;-73
2022/12/24 01:07:56;;;;;;;0.13;0.13;;;;;;;6.90;100.00;95767.59;4961360;28;20038;-74
2022/12/24 01:10:44;;;;;;;0.10;0.10;;;;;;;6.86;100.00;95766.47;4965379;28;20050;-74
2022/12/24 01:13:30;;;;;;;0.20;0.20;;;;;;;6.82;100.00;95764.53;4965027;28;20435;-74
2022/12/24 01:16:19;;;;;;;0.20;0.20;;;;;;;6.72;100.00;95773.16;4962406;28;20262;-73
2022/12/24 01:19:05;;;;;;;0.20;0.20;;;;;;;6.69;100.00;95778.94;4962559;28;20380;-74
2022/12/24 01:21:53;;;;;;;0.10;0.10;;;;;;;6.89;100.00;95770.50;4962829;28;20141;-74
2022/12/24 01:24:40;;;;;;;0.10;0.10;;;;;;;7.03;100.00;95766.47;4963900;28;20987;-74
2022/12/24 01:27:26;;;;;;;0.20;0.20;;;;;;;7.13;100.00;95771.16;4962299;28;20530;-74
2022/12/24 01:30:14;;;;;;;0.20;0.20;;;;;;;7.18;100.00;95782.69;4960475;28;20042;-71
2022/12/24 01:32:59;;;;;;;0.10;0.10;;;;;;;7.21;100.00;95779.53;4950525;28;20050;-73
2022/12/24 01:35:45;;;;;;;0.20;0.20;;;;;;;7.24;100.00;95788.88;4950683;28;20050;-73
2022/12/24 01:38:31;;;;;;;0.20;0.20;;;;;;;7.25;100.00;95787.84;4963756;28;20047;-73
2022/12/24 01:44:30;;;;;;;0.30;0.30;;;;;;;7.30;100.00;95787.09;4960311;28;20060;-71
2022/12/24 01:47:28;;;;;;;0.20;0.20;;;;;;;7.27;100.00;95793.72;4961927;28;20080;-74
2022/12/24 01:50:16;;;;;;;0.20;0.20;;;;;;;7.28;100.00;95794.53;4965411;28;20042;-73
2022/12/24 01:53:05;;;;;;;0.20;0.20;;;;;;;7.26;100.00;95787.59;4963520;28;20076;-75
2022/12/24 01:55:57;;;;;;;0.10;0.10;;;;;;;7.26;100.00;95789.44;4967948;28;20466;-73
2022/12/24 01:58:49;;;;;;;0.20;0.20;;;;;;;7.26;100.00;95786.78;4953728;28;20042;-71
2022/12/24 02:01:36;;;;;;;0.20;0.20;;;;;;;7.26;100.00;95787.59;4968167;28;20112;-73
2022/12/24 02:04:41;;;;;;;0.20;0.20;;;;;;;7.21;100.00;95816.78;4963482;28;20569;-74
2022/12/24 02:07:27;;;;;;;0.20;0.20;;;;;;;7.19;100.00;95797.59;4963209;28;20034;-73
2022/12/24 02:10:14;;;;;;;0.20;0.20;;;;;;;7.30;100.00;95813.69;4965986;28;20054;-70
2022/12/24 02:13:02;;;;;;;0.20;0.20;;;;;;;7.26;100.00;95818.72;4967303;28;20042;-74
2022/12/24 02:15:54;;;;;;;0.20;0.20;;;;;;;7.27;100.00;95828.31;4965163;28;20038;-73
2022/12/24 02:18:42;;;;;;;;;;;;;;;7.23;100.00;95829.81;4938686;28;20204;-74
2022/12/24 02:21:43;;;;;;;0.10;0.10;;;;;;;7.22;100.00;95823.69;4964405;28;19975;-72
2022/12/24 02:25:19;;;;;;;0.20;0.20;;;;;;;7.17;100.00;95822.84;4968105;28;20340;-74
2022/12/24 02:28:42;;;;;;;0.20;0.20;;;;;;;7.12;100.00;95834.19;4945891;28;20042;-73
2022/12/24 02:31:49;;;;;;;0.20;0.20;;;;;;;7.09;100.00;95839.22;4963831;28;20332;-72
2022/12/24 02:34:40;;;;;;;0.10;0.10;;;;;;;6.96;100.00;95859.72;4967058;28;20064;-73
2022/12/24 02:37:33;;;;;;;0.20;0.20;;;;;;;6.81;100.00;95853.34;4964160;28;20178;-72
2022/12/24 02:40:35;;;;;;;0.20;0.20;;;;;;;6.66;100.00;95857.34;4964225;28;20157;-73
2022/12/24 02:43:26;;;;;;;0.20;0.20;;;;;;;6.55;100.00;95852.88;4964576;28;20107;-73
2022/12/24 02:46:20;;;;;;;0.10;0.10;;;;;;;6.49;100.00;95866.31;4963408;28;20133;-72
2022/12/24 02:49:06;;;;;;;0.10;0.10;;;;;;;6.47;100.00;95855.94;4964317;28;20049;-73
2022/12/24 02:51:52;;;;;;;0.10;0.10;;;;;;;6.50;100.00;95883.88;4965433;28;20665;-74
2022/12/24 02:54:37;;;;;;;0.20;0.20;;;;;;;6.47;100.00;95871.88;4953640;28;20061;-72
2022/12/24 02:57:46;;;;;;;0.20;0.20;;;;;;;6.46;100.00;95883.56;4962774;28;20543;-70
2022/12/24 03:00:57;;;;;;;0.10;0.10;;;;;;;6.56;100.00;95896.22;4963410;28;20664;-72
2022/12/24 03:04:11;;;;;;;0.25;0.25;;;;;;;6.65;100.00;95894.81;4965988;28;20320;-74
2022/12/24 03:07:05;;;;;;;0.20;0.20;;;;;;;6.75;100.00;95889.66;4966187;28;20425;-74
2022/12/24 03:09:58;;;;;;;0.20;0.20;;;;;;;6.82;100.00;95898.31;4964874;28;20291;-72
2022/12/24 03:12:49;;;;;;;0.20;0.20;;;;;;;6.82;100.00;95900.97;4964062;28;20046;-72
2022/12/24 03:15:37;;;;;;;0.20;0.20;;;;;;;6.79;100.00;95893.47;4965782;28;20046;-74
2022/12/24 03:18:28;;;;;;;0.20;0.17;;;;;;;6.91;100.00;95906.72;4963419;28;20265;-74
2022/12/24 03:21:28;;;;;;;0.20;0.20;;;;;;;6.95;100.00;95906.00;4948367;28;20574;-71
2022/12/24 03:24:14;;;;;;;0.20;0.20;;;;;;;6.98;100.00;95899.38;4962957;28;20897;-73
2022/12/24 03:27:01;;;;;;;0.20;0.20;;;;;;;7.06;100.00;95903.53;4965353;28;20073;-74
2022/12/24 03:29:47;;;;;;;0.15;0.15;;;;;;;7.09;100.00;95893.22;4963661;28;20054;-72
2022/12/24 03:32:33;;;;;;;0.20;0.20;;;;;;;7.11;100.00;95890.31;4936283;28;20051;-72
2022/12/24 03:35:19;;;;;;;0.20;0.20;;;;;;;7.06;100.00;95914.16;4950826;28;20042;-74
2022/12/24 03:38:05;;;;;;;0.20;0.20;;;;;;;7.07;100.00;95908.59;4961512;28;20323;-75
2022/12/24 03:40:51;;;;;;;0.13;0.13;;;;;;;7.05;100.00;95907.22;4964141;28;20046;-74
2022/12/24 03:43:36;;;;;;;0.20;0.20;;;;;;;7.05;100.00;95915.22;4964351;28;20445;-72
2022/12/24 03:46:22;;;;;;;0.10;0.10;;;;;;;7.09;100.00;95911.03;4962027;28;20050;-73
2022/12/24 03:49:08;;;;;;;0.20;0.20;;;;;;;7.08;100.00;95928.84;4963647;28;20396;-74
2022/12/24 03:51:54;;;;;;;0.20;0.20;;;;;;;7.09;100.00;95919.81;4963285;28;20038;-70
2022/12/24 03:54:40;;;;;;;0.20;0.20;;;;;;;7.11;100.00;95923.03;4964025;28;20049;-73
2022/12/24 03:57:25;;;;;;;0.15;0.15;;;;;;;7.05;100.00;95917.88;4963554;28;20530;-73
2022/12/24 04:00:12;;;;;;;0.10;0.10;;;;;;;7.09;100.00;95927.00;4950198;28;20133;-74
2022/12/24 04:02:57;;;;;;;0.10;0.10;;;;;;;7.06;100.00;95927.47;4963141;28;20054;-72
2022/12/24 04:05:43;;;;;;;0.17;0.17;;;;;;;7.01;100.00;95938.84;4965695;28;20046;-73
2022/12/24 04:08:30;;;;;;;0.17;0.17;;;;;;;6.97;100.00;95937.69;4963783;28;21286;-73
2022/12/24 04:11:16;;;;;;;0.17;0.17;;;;;;;6.94;100.00;95944.28;4962896;28;20046;-72
2022/12/24 04:14:05;;;;;;;0.20;0.20;;;;;;;6.94;100.00;95946.97;4962540;28;20212;-73
2022/12/24 04:16:50;;;;;;;0.10;0.10;;;;;;;6.93;100.00;95940.03;4963967;28;20433;-72
2022/12/24 04:19:36;;;;;;;0.10;0.10;;;;;;;6.93;100.00;95942.69;4949531;28;20056;-73
2022/12/24 04:22:22;;;;;;;0.20;0.20;;;;;;;6.94;100.00;95941.63;4939029;28;20192;-74
2022/12/24 04:25:08;;;;;;;0.20;0.20;;;;;;;6.88;100.00;95937.25;4963605;28;20086;-74
2022/12/24 04:27:54;;;;;;;0.30;0.30;;;;;;;6.92;100.00;95938.38;4965552;28;20622;-74
2022/12/24 04:30:41;;;;;;;0.20;0.20;;;;;;;6.95;100.00;95934.47;4962956;28;20046;-73
2022/12/24 04:33:29;;;;;;;0.20;0.20;;;;;;;6.85;100.00;95935.09;4960846;28;20279;-74
2022/12/24 04:36:16;;;;;;;0.20;0.20;;;;;;;6.93;100.00;95940.03;4961247;28;20046;-71
2022/12/24 04:39:02;;;;;;;0.25;0.20;;;;;;;6.88;100.00;95942.56;4962632;28;20042;-70
2022/12/24 04:41:48;;;;;;;0.20;0.20;;;;;;;6.82;100.00;95950.69;4962144;28;20409;-74
2022/12/24 04:44:34;;;;;;;0.20;0.20;;;;;;;6.80;100.00;95950.13;4963397;28;20185;-72
2022/12/24 04:47:20;;;;;;;0.20;0.20;;;;;;;6.83;100.00;95950.44;4960437;28;20411;-73
2022/12/24 04:50:06;;;;;;;0.17;0.17;;;;;;;6.82;100.00;95946.19;4965300;28;20045;-74
2022/12/24 04:52:52;;;;;;;0.20;0.20;;;;;;;6.82;100.00;95951.50;4963258;28;20040;-70
2022/12/24 04:55:38;;;;;;;0.10;0.10;;;;;;;6.74;100.00;95949.22;4963206;28;20887;-71
2022/12/24 04:58:24;;;;;;;0.15;0.15;;;;;;;6.75;100.00;95940.19;4963184;28;20329;-73
2022/12/24 05:01:14;;;;;;;0.20;0.20;;;;;;;6.75;100.00;95948.16;4965348;28;20047;-73
2022/12/24 05:04:00;;;;;;;0.10;0.10;;;;;;;6.66;100.00;95942.41;4963842;28;20395;-70
2022/12/24 05:06:46;;;;;;;0.20;0.20;;;;;;;6.68;100.00;95948.31;4963841;28;20388;-73
2022/12/24 05:09:32;;;;;;;0.20;0.20;;;;;;;6.70;100.00;95940.13;4964695;28;20082;-71
2022/12/24 05:12:18;;;;;;;0.17;0.17;;;;;;;6.72;100.00;95946.00;4963168;28;20550;-71
2022/12/24 05:15:05;;;;;;;0.10;0.10;;;;;;;6.76;100.00;95952.44;4964403;28;20058;-74
2022/12/24 05:17:51;;;;;;;0.20;0.20;;;;;;;6.74;100.00;95959.84;4951055;28;20166;-73
2022/12/24 05:20:37;;;;;;;0.20;0.20;;;;;;;6.76;100.00;95979.03;4963223;28;20043;-72
2022/12/24 05:26:45;;;;;;;0.20;0.20;;;;;;;6.62;100.00;95988.34;4963854;28;20575;-74
2022/12/24 05:29:31;;;;;;;0.20;0.20;;;;;;;6.48;100.00;95986.97;4962682;28;20039;-72
2022/12/24 05:32:19;;;;;;;0.10;0.10;;;;;;;6.41;100.00;95998.53;4963923;28;20527;-73
2022/12/24 05:35:05;;;;;;;0.20;0.20;;;;;;;6.37;100.00;95992.06;4963951;28;20038;-73
2022/12/24 05:37:51;;;;;;;0.13;0.13;;;;;;;6.38;100.00;95992.84;4952119;28;20128;-71
2022/12/24 05:40:37;;;;;;;0.20;0.20;;;;;;;6.39;100.00;95994.50;4949646;28;20049;-73
2022/12/24 05:43:23;;;;;;;0.10;0.10;;;;;;;6.38;100.00;95995.50;4961949;28;20110;-73
2022/12/24 05:46:11;;;;;;;0.20;0.20;;;;;;;6.38;100.00;95998.16;4964058;28;20058;-74
2022/12/24 05:48:57;;;;;;;0.20;0.20;;;;;;;6.27;100.00;95996.34;4964265;28;20561;-70
2022/12/24 05:51:43;;;;;;;0.20;0.20;;;;;;;6.12;100.00;95996.81;4964511;28;20089;-74
2022/12/24 05:54:28;;;;;;;0.20;0.20;;;;;;;6.16;100.00;95997.97;4962665;28;20324;-73
2022/12/24 05:57:15;;;;;;;0.20;0.20;;;;;;;6.30;100.00;96007.34;4963366;28;20520;-74
2022/12/24 06:00:01;;;;;;;0.20;0.20;;;;;;;6.38;100.00;96008.81;4964446;28;20355;-74
2022/12/24 06:02:47;;;;;;;0.20;0.20;;;;;;;6.45;100.00;96006.03;4963857;28;20038;-73
2022/12/24 06:05:33;;;;;;;0.20;0.20;;;;;;;6.49;100.00;96012.50;4961411;28;20054;-74
2022/12/24 06:08:19;;;;;;;0.10;0.10;;;;;;;6.46;100.00;96013.78;4964796;28;20053;-73
2022/12/24 06:11:08;;;;;;;0.10;0.10;;;;;;;6.53;100.00;96019.75;4965989;28;20578;-73
2022/12/24 06:13:54;;;;;;;0.10;0.10;;;;;;;6.51;100.00;96023.72;4963911;28;20093;-75
2022/12/24 06:16:40;;;;;;;0.10;0.10;;;;;;;6.49;100.00;96020.47;4962864;28;20050;-74
2022/12/24 06:19:26;;;;;;;0.20;0.20;;;;;;;6.48;100.00;96022.34;4963206;28;20423;-72
2022/12/24 06:22:12;;;;;;;0.20;0.20;;;;;;;6.42;100.00;96021.41;4965328;28;20050;-74
2022/12/24 06:24:58;;;;;;;0.20;0.20;;;;;;;6.47;100.00;96027.88;4965403;28;20737;-72
2022/12/24 06:27:44;;;;;;;0.10;0.10;;;;;;;6.46;100.00;96029.75;4963101;28;20430;-70
2022/12/24 06:30:30;;;;;;;0.10;0.10;;;;;;;6.49;100.00;96028.47;4961797;28;20506;-73
2022/12/24 06:33:16;;;;;;;0.20;0.20;;;;;;;6.54;100.00;96025.91;4964586;28;20133;-73
2022/12/24 06:36:06;;;;;;;0.15;0.15;;;;;;;6.47;100.00;96020.72;4965608;28;20053;-74
2022/12/24 06:38:53;;;;;;;0.10;0.10;;;;;;;6.51;100.00;96032.50;4964071;28;20046;-74
2022/12/24 06:41:39;;;;;;;0.13;0.13;;;;;;;6.49;100.00;96047.88;4969386;28;20038;-71
2022/12/24 06:44:28;;;;;;;0.20;0.20;;;;;;;6.57;100.00;96044.06;4965319;28;20129;-71
2022/12/24 06:47:14;;;;;;;0.20;0.20;;;;;;;6.58;100.00;96048.31;4966794;28;20621;-75
2022/12/24 06:49:59;;;;;;;0.20;0.20;;;;;;;6.57;100.00;96046.72;4966987;28;20085;-72
2022/12/24 06:52:46;;;;;;;0.15;0.15;;;;;;;6.54;100.00;96052.50;4967516;28;20562;-74
2022/12/24 06:55:32;;;;;;;0.20;0.20;;;;;;;6.46;100.00;96045.69;4966395;28;20046;-72
2022/12/24 06:58:17;;;;;;;0.25;0.20;;;;;;;6.51;100.00;96055.59;4967608;28;20055;-70
2022/12/24 07:01:05;;;;;;;0.20;0.20;;;;;;;6.51;100.00;96060.94;4967727;28;20046;-72
2022/12/24 07:03:51;;;;;;;0.10;0.10;;;;;;;6.50;100.00;96061.97;4966150;28;20480;-72
2022/12/24 07:06:37;;;;;;;0.20;0.20;;;;;;;6.55;100.00;96057.59;4968091;28;20082;-74
2022/12/24 07:09:26;;;;;;;0.20;0.20;;;;;;;6.60;100.00;96062.19;4965072;28;20621;-72
2022/12/24 07:12:11;;;;;;;0.20;0.20;;;;;;;6.57;100.00;96058.16;4968095;28;20733;-74
2022/12/24 07:14:57;;;;;;;0.20;0.20;;;;;;;6.63;100.00;96070.53;4954515;28;20048;-72
2022/12/24 07:17:43;;;;;;;0.13;0.13;;;;;;;6.59;100.00;96073.88;4966159;28;20475;-74
2022/12/24 07:20:29;;;;;;;0.10;0.10;;;;;;;6.59;100.00;96068.53;4966524;28;20050;-75
2022/12/24 07:23:15;;;;;;;0.20;0.20;;;;;;;6.65;100.00;96076.41;4967722;28;20490;-73
2022/12/24 07:26:03;;;;;;;0.10;0.10;;;;;;;6.68;100.00;96081.25;4969108;28;20046;-74
2022/12/24 07:28:50;;;;;;;0.10;0.10;;;;;;;6.69;100.00;96077.56;4965847;28;20273;-73
2022/12/24 07:31:36;;;;;;;0.10;0.10;;;;;;;6.59;100.00;96068.53;4968459;28;20510;-75
2022/12/24 07:34:22;;;;;;;0.20;0.20;;;;;;;6.59;100.00;96082.66;4964845;28;20067;-72
2022/12/24 07:37:08;;;;;;;0.20;0.20;;;;;;;6.60;100.00;96086.09;4966083;28;20046;-71
2022/12/24 07:39:54;;;;;;;0.20;0.20;;;;;;;6.70;100.00;96094.34;4969267;28;20360;-73
2022/12/24 07:42:39;;;;;;;0.20;0.20;;;;;;;6.70;100.00;96105.78;4970210;28;20049;-71
2022/12/24 07:45:25;;;;;;;0.20;0.20;;;;;;;6.77;100.00;96110.97;4965663;28;20230;-74
2022/12/24 07:48:12;;;;;;;0.10;0.10;;;;;;;6.76;100.00;96119.16;4966993;28;20105;-73
2022/12/24 07:50:58;;;;;;;0.20;0.20;;;;;;;6.78;100.00;96109.94;4967109;28;20045;-70
2022/12/24 07:53:46;;;;;;;0.10;0.10;;;;;;;6.85;100.00;96121.25;4965770;28;20440;-72
2022/12/24 07:56:33;;;;;;;0.20;0.20;;;;;;;6.78;100.00;96117.91;4967071;28;20077;-72
2022/12/24 07:59:19;;;;;;;0.20;0.20;;;;;;;6.77;100.00;96123.44;4964805;28;20149;-69
2022/12/24 08:02:05;;;;;;;0.10;0.10;;;;;;;6.81;100.00;96135.25;4957399;28;20471;-72
2022/12/24 08:04:51;;;;;;;0.10;0.10;;;;;;;6.84;100.00;96140.91;4947501;28;20043;-70
2022/12/24 08:07:37;;;;;;;0.20;0.20;;;;;;;6.80;100.00;96138.94;4947679;28;20082;-74
2022/12/24 08:10:22;;;;;;;0.20;0.20;;;;;;;6.85;100.00;96161.16;4958822;28;20046;-74
2022/12/24 08:13:08;;;;;;;0.20;0.20;;;;;;;6.90;100.00;96147.94;4947474;28;20141;-75
2022/12/24 08:15:54;;;;;;;0.10;0.10;;;;;;;6.95;100.00;96163.22;4949037;28;20620;-73
2022/12/24 08:18:40;;;;;;;0.20;0.20;;;;;;;6.94;100.00;96154.44;4946040;28;20586;-74
2022/12/24 08:21:26;;;;;;;0.20;0.20;;;;;;;7.01;100.00;96169.47;4946558;28;20619;-75
2022/12/24 08:24:12;;;;;;;0.20;0.20;;;;;;;6.96;100.00;96168.31;4943040;28;20039;-75
2022/12/24 08:26:58;;;;;;;0.10;0.10;;;;;;;6.94;100.00;96166.94;4947849;28;20522;-70
2022/12/24 08:29:46;;;;;;;0.20;0.20;;;;;;;6.98;100.00;96165.41;4945593;28;20062;-74
2022/12/24 08:32:32;;;;;;;0.10;0.10;;;;;;;6.96;100.00;96170.97;4947761;28;20301;-73
2022/12/24 08:35:18;;;;;;;0.20;0.20;;;;;;;6.89;100.00;96172.13;4947608;28;20081;-70
2022/12/24 08:38:04;;;;;;;0.20;0.20;;;;;;;6.89;100.00;96172.94;4946624;28;20039;-74
2022/12/24 08:40:52;;;;;;;0.22;0.22;;;;;;;6.99;100.00;96165.19;4960992;28;20057;-72
2022/12/24 08:43:38;;;;;;;0.20;0.20;;;;;;;7.16;100.00;96172.44;4949939;28;20483;-74
2022/12/24 08:46:24;;;;;;;0.20;0.20;;;;;;;7.39;100.00;96177.75;4946590;28;20121;-74
2022/12/24 08:49:10;;;;;;;0.20;0.20;;;;;;;7.69;100.00;96169.53;4947751;28;20443;-75
2022/12/24 08:51:55;;;;;;;0.10;0.10;;;;;;;7.84;100.00;96169.03;4947381;28;20045;-73
2022/12/24 08:54:41;;;;;;;0.10;0.10;;;;;;;7.73;100.00;96173.38;4945975;28;20035;-75
2022/12/24 08:57:27;;;;;;;0.20;0.20;;;;;;;7.81;100.00;96188.16;4944550;28;20101;-74
2022/12/24 09:00:13;;;;;;;0.15;0.15;;;;;;;7.89;100.00;96190.44;4957022;28;20074;-74
2022/12/24 09:02:59;;;;;;;0.20;0.20;;;;;;;7.85;100.00;96199.94;4946471;28;20399;-74
2022/12/24 09:05:46;;;;;;;0.10;0.10;;;;;;;7.96;100.00;96199.09;4944971;28;20589;-74
2022/12/24 09:08:32;;;;;;;0.20;0.20;;;;;;;7.92;100.00;96205.94;4946736;28;20054;-72
2022/12/24 09:11:19;;;;;;;0.20;0.20;;;;;;;7.75;100.00;96208.56;4946366;28;20046;-74
2022/12/24 09:14:05;;;;;;;0.13;0.13;;;;;;;7.85;100.00;96197.28;4944963;28;20399;-73
2022/12/24 09:16:51;;;;;;;0.13;0.13;;;;;;;8.00;100.00;96221.56;4947902;28;20649;-70
2022/12/24 09:19:37;;;;;;;0.10;0.10;;;;;;;8.06;100.00;96219.81;4945962;28;20496;-71
2022/12/24 09:22:22;;;;;;;0.20;0.20;;;;;;;8.20;100.00;96202.47;4947550;28;20467;-69
2022/12/24 09:25:09;;;;;;;0.20;0.20;;;;;;;8.20;100.00;96207.00;4946900;28;20131;-74
2022/12/24 09:27:55;;;;;;;0.13;0.13;;;;;;;8.36;100.00;96222.25;4947579;28;20158;-72
2022/12/24 09:30:41;;;;;;;0.20;0.20;;;;;;;8.29;100.00;96219.69;4957795;28;20353;-74
2022/12/24 09:33:29;;;;;;;0.10;0.10;;;;;;;8.29;100.00;96224.22;4946693;28;20128;-74
2022/12/24 09:36:18;;;;;;;0.20;0.20;;;;;;;8.60;100.00;96215.72;4945525;28;20043;-73
2022/12/24 09:39:04;;;;;;;0.20;0.20;;;;;;;8.92;100.00;96231.19;4947748;28;20487;-71
2022/12/24 09:42:25;;;;;;;0.20;0.20;;;;;;;9.04;100.00;96239.13;4947705;28;20101;-72
2022/12/24 09:45:19;;;;;;;0.20;0.20;;;;;;;9.03;100.00;96243.66;4949038;28;20043;-74
2022/12/24 09:48:15;;;;;;;0.20;0.20;;;;;;;9.32;100.00;96249.66;4945418;28;20554;-74
2022/12/24 09:51:06;;;;;;;0.20;0.20;;;;;;;9.09;100.00;96247.19;4959291;28;20027;-72
2022/12/24 09:54:24;;;;;;;0.20;0.20;;;;;;;9.29;100.00;96254.69;4947787;28;20175;-73
2022/12/24 09:57:24;;;;;;;0.20;0.20;;;;;;;9.26;100.00;96263.19;4947402;28;20038;-75
2022/12/24 10:00:19;;;;;;;0.20;0.20;;;;;;;9.07;100.00;96263.44;4945368;28;20078;-75
2022/12/24 10:03:14;;;;;;;0.20;0.20;;;;;;;9.11;100.00;96269.94;4948101;28;20042;-74
2022/12/24 10:06:13;;;;;;;0.10;0.10;;;;;;;9.46;100.00;96274.97;4945388;28;20047;-72
2022/12/24 10:09:15;;;;;;;0.20;0.20;;;;;;;9.43;100.00;96264.00;4950934;28;20089;-75
2022/12/24 10:12:07;;;;;;;0.20;0.20;;;;;;;9.58;100.00;96261.53;4952453;28;20074;-74
2022/12/24 10:14:59;;;;;;;0.15;0.15;;;;;;;9.54;100.00;96263.06;4950500;28;20478;-72
2022/12/24 10:17:56;;;;;;;;;;;;;;;9.60;100.00;96270.09;4949377;28;20525;-74
2022/12/24 10:21:04;;;;;;;0.20;0.20;;;;;;;9.80;100.00;96276.75;4948578;28;19918;-74
2022/12/24 10:24:13;;;;;;;0.20;0.20;;;;;;;9.73;100.00;96283.09;4948580;28;20338;-75
2022/12/24 10:27:10;;;;;;;0.10;0.10;;;;;;;9.31;100.00;96287.28;4949886;28;20043;-73
2022/12/24 10:30:02;;;;;;;0.20;0.20;;;;;;;9.59;100.00;96299.72;4950344;28;20617;-74
2022/12/24 10:32:51;;;;;;;0.10;0.10;;;;;;;8.96;100.00;96279.56;4950440;28;20800;-72
2022/12/24 10:35:45;;;;;;;0.13;0.13;;;;;;;8.87;100.00;96287.97;4949557;28;20217;-74
2022/12/24 10:38:32;;;;;;;0.20;0.20;;;;;;;8.84;100.00;96290.28;4949303;28;20082;-72
2022/12/24 10:41:18;;;;;;;0.20;0.20;;;;;;;8.84;100.00;96280.41;4948699;28;20066;-74
2022/12/24 10:44:04;;;;;;;0.20;0.20;;;;;;;8.75;100.00;96265.06;4950772;28;20039;-71
2022/12/24 10:46:50;;;;;;;0.20;0.20;;;;;;;8.68;100.00;96280.41;4950193;28;20118;-73
2022/12/24 10:49:46;;;;;;;0.10;0.10;;;;;;;8.87;100.00;96273.78;4949216;28;20046;-76
2022/12/24 10:52:36;;;;;;;0.20;0.20;;;;;;;9.03;100.00;96290.88;4947960;28;20080;-74
2022/12/24 10:55:23;;;;;;;0.20;0.20;;;;;;;8.87;100.00;96282.63;4963227;28;20138;-72
2022/12/24 10:58:17;;;;;;;0.20;0.20;;;;;;;8.87;100.00;96279.13;4948747;28;20049;-74
2022/12/24 11:01:03;;;;;;;0.20;0.20;;;;;;;8.46;100.00;96297.09;4947767;28;20435;-73
2022/12/24 11:04:01;;;;;;;0.20;0.20;;;;;;;8.63;100.00;96286.44;4961824;28;20598;-72
2022/12/24 11:06:52;;;;;;;0.10;0.10;;;;;;;8.45;100.00;96286.66;4948061;28;20090;-71
2022/12/24 11:09:42;;;;;;;0.20;0.20;;;;;;;8.36;100.00;96284.38;4948845;28;20291;-73
2022/12/24 11:12:46;;;;;;;0.20;0.20;;;;;;;8.42;100.00;96285.28;4958376;28;20519;-73
2022/12/24 11:15:33;;;;;;;0.15;0.15;;;;;;;8.58;100.00;96289.84;4947995;28;20068;-74
2022/12/24 11:18:20;;;;;;;0.20;0.20;;;;;;;8.31;100.00;96283.44;4947750;28;20056;-72
2022/12/24 11:21:06;;;;;;;0.20;0.20;;;;;;;8.17;100.00;96276.75;4947759;28;20533;-71
2022/12/24 11:23:56;;;;;;;0.20;0.20;;;;;;;8.27;100.00;96282.31;4947559;28;20043;-74
2022/12/24 11:26:43;;;;;;;0.20;0.20;;;;;;;8.47;100.00;96282.69;4948489;28;20126;-74
2022/12/24 11:29:29;;;;;;;0.20;0.20;;;;;;;8.60;100.00;96277.06;4948949;28;20136;-73
2022/12/24 11:32:18;;;;;;;0.10;0.10;;;;;;;8.29;100.00;96282.88;4947905;28;20598;-71
2022/12/24 11:35:16;;;;;;;0.20;0.20;;;;;;;8.31;100.00;96278.91;4602828;28;10000066;-72
2022/12/24 11:38:04;;;;;;;0.22;0.22;;;;;;;8.67;100.00;96286.78;4604146;28;10000884;-73
2022/12/24 11:41:04;;;;;;;0.13;0.13;;;;;;;8.80;100.00;96262.47;4946313;28;20113;-73
2022/12/24 11:43:59;;;;;;;0.10;0.10;;;;;;;8.88;100.00;96267.41;4946201;28;20039;-72
2022/12/24 11:46:50;;;;;;;0.20;0.20;;;;;;;8.72;100.00;96271.69;4947107;28;20051;-74
2022/12/24 11:49:36;;;;;;;0.10;0.10;;;;;;;8.96;100.00;96272.34;4945275;28;20047;-74
2022/12/24 11:52:23;;;;;;;0.10;0.10;;;;;;;8.69;100.00;96268.69;4948964;28;20050;-73
2022/12/24 11:55:32;;;;;;;0.17;0.17;;;;;;;8.63;100.00;96281.91;4947486;28;20113;-75
2022/12/24 11:58:31;;;;;;;0.10;0.10;;;;;;;8.82;100.00;96273.72;4947745;28;20328;-70
2022/12/24 12:01:23;;;;;;;0.20;0.20;;;;;;;8.32;100.00;96277.88;4945412;28;20050;-70
2022/12/24 12:04:17;;;;;;;0.20;0.20;;;;;;;8.21;100.00;96283.25;4944759;28;20066;-73
2022/12/24 12:07:12;;;;;;;0.20;0.20;;;;;;;8.15;100.00;96281.53;4946962;28;20166;-73
2022/12/24 12:10:14;;;;;;;0.20;0.20;;;;;;;8.39;100.00;96291.09;4947760;28;20034;-70
2022/12/24 12:13:05;;;;;;;;;;;;;;;8.41;100.00;96283.69;4949013;28;20031;-73
2022/12/24 12:16:13;;;;;;;0.20;0.20;;;;;;;8.47;100.00;96293.38;4947368;28;19924;-71
2022/12/24 12:19:03;;;;;;;0.10;0.10;;;;;;;8.34;100.00;96288.31;4946675;28;20656;-72
2022/12/24 12:21:50;;;;;;;0.10;0.10;;;;;;;8.38;100.00;96292.13;4944533;28;20317;-72
2022/12/24 12:24:46;;;;;;;0.20;0.20;;;;;;;8.35;100.00;96289.97;4955410;28;20085;-71
2022/12/24 12:27:38;;;;;;;0.10;0.10;;;;;;;8.35;100.00;96295.28;4944640;28;20317;-73
2022/12/24 12:30:25;;;;;;;0.15;0.15;;;;;;;8.53;100.00;96297.75;4942898;28;20051;-73
2022/12/24 12:33:13;;;;;;;0.10;0.10;;;;;;;8.67;100.00;96302.78;4942307;28;20117;-72
2022/12/24 12:36:02;;;;;;;0.20;0.20;;;;;;;8.79;100.00;96298.19;4946668;28;20083;-70
2022/12/24 12:38:49;;;;;;;0.20;0.20;;;;;;;9.01;100.00;96308.97;4955877;28;20255;-69
2022/12/24 12:41:48;;;;;;;0.20;0.20;;;;;;;9.07;100.00;96300.00;4956414;28;20042;-70
2022/12/24 12:44:53;;;;;;;0.20;0.20;;;;;;;9.25;100.00;96298.94;4942313;28;20039;-74
2022/12/24 12:47:42;;;;;;;0.20;0.20;;;;;;;9.59;100.00;96307.75;4945176;28;20046;-72
2022/12/24 12:50:41;;;;;;;0.20;0.20;;;;;;;9.94;100.00;96312.75;4943141;28;20054;-72
2022/12/24 12:53:41;;;;;;;0.20;0.20;;;;;;;10.05;100.00;96293.13;4945377;28;20043;-73
2022/12/24 12:56:34;;;;;;;0.20;0.20;;;;;;;10.41;100.00;96286.34;4944438;28;20543;-72
2022/12/24 12:59:50;;;;;;;0.20;0.20;;;;;;;10.60;100.00;96301.00;4953829;28;20046;-72
2022/12/24 13:02:46;;;;;;;0.10;0.10;;;;;;;10.14;100.00;96299.66;4942647;28;20478;-72
2022/12/24 13:06:09;;;;;;;0.10;0.10;;;;;;;9.63;100.00;96307.00;4943792;28;20145;-69
2022/12/24 13:09:51;;;;;;;0.20;0.20;;;;;;;9.18;100.00;96309.78;4943879;28;20462;-71
2022/12/24 13:13:25;;;;;;;0.20;0.20;;;;;;;9.02;100.00;96310.59;4945813;28;20042;-74
2022/12/24 13:16:21;;;;;;;0.10;0.10;;;;;;;9.09;100.00;96314.72;4959571;28;20482;-73
2022/12/24 13:19:13;;;;;;;0.20;0.20;;;;;;;9.00;100.00;96320.72;4946637;28;20093;-73
2022/12/24 13:22:00;;;;;;;0.20;0.20;;;;;;;9.04;100.00;96333.34;4945717;28;20045;-72
2022/12/24 13:24:51;;;;;;;0.20;0.20;;;;;;;9.22;100.00;96329.63;4944216;28;20117;-73
2022/12/24 13:27:37;;;;;;;0.10;0.10;;;;;;;9.28;100.00;96323.31;4945149;28;20427;-70